sensor_id;sensor_type;location;lat;lon;timestamp;temperature;humidity
15286;DHT22;7744;52.172;10.668;2023-04-24T00:02:13;12.10;1.00
15286;DHT22;7744;52.172;10.668;2023-04-24T00:04:39;12.10;1.00
15286;DHT22;7744;52.172;10.668;2023-04-24T00:07:10;12.00;1.00
15286;DHT22;7744;52.172;10.668;2023-04-24T00:09:38;12.10;1.00
15286;DHT22;7744;52.172;10.668;2023-04-24T00:12:04;12.00;1.00
15286;DHT22;7744;52.172;10.668;2023-04-24T00:14:31;12.00;1.00
15286;DHT22;7744;52.172;10.668;2023-04-24T00:16:56;12.30;1.00
15286;DHT22;7744;52.172;10.668;2023-04-24T00:19:29;12.00;1.00
15286;DHT22;7744;52.172;10.668;2023-04-24T00:21:55;12.10;1.00
15286;DHT22;7744;52.172;10.668;2023-04-24T00:24:21;12.10;1.00
15286;DHT22;7744;52.172;10.668;2023-04-24T00:26:46;12.10;1.00
15286;DHT22;7744;52.172;10.668;2023-04-24T00:29:12;13.00;1.00
15286;DHT22;7744;52.172;10.668;2023-04-24T00:31:38;12.10;1.00
15286;DHT22;7744;52.172;10.668;2023-04-24T00:34:04;12.00;1.00
15286;DHT22;7744;52.172;10.668;2023-04-24T00:36:31;11.90;1.00
15286;DHT22;7744;52.172;10.668;2023-04-24T00:38:57;11.80;1.00
15286;DHT22;7744;52.172;10.668;2023-04-24T00:41:24;11.90;1.00
15286;DHT22;7744;52.172;10.668;2023-04-24T00:43:50;12.90;1.00
15286;DHT22;7744;52.172;10.668;2023-04-24T00:46:16;12.00;1.00
15286;DHT22;7744;52.172;10.668;2023-04-24T00:48:43;12.00;1.00
15286;DHT22;7744;52.172;10.668;2023-04-24T00:51:08;12.00;1.00
15286;DHT22;7744;52.172;10.668;2023-04-24T00:53:34;12.00;1.00
15286;DHT22;7744;52.172;10.668;2023-04-24T00:56:00;12.00;1.00
15286;DHT22;7744;52.172;10.668;2023-04-24T00:58:26;12.00;1.00
15286;DHT22;7744;52.172;10.668;2023-04-24T01:00:53;11.90;1.00
15286;DHT22;7744;52.172;10.668;2023-04-24T01:03:25;11.80;1.00
15286;DHT22;7744;52.172;10.668;2023-04-24T01:05:52;12.50;1.00
15286;DHT22;7744;52.172;10.668;2023-04-24T01:08:19;11.90;1.00
15286;DHT22;7744;52.172;10.668;2023-04-24T01:10:46;11.90;1.00
15286;DHT22;7744;52.172;10.668;2023-04-24T01:13:13;11.80;1.00
15286;DHT22;7744;52.172;10.668;2023-04-24T01:15:39;11.80;1.00
15286;DHT22;7744;52.172;10.668;2023-04-24T01:18:04;11.80;1.00
15286;DHT22;7744;52.172;10.668;2023-04-24T01:20:34;11.80;1.00
15286;DHT22;7744;52.172;10.668;2023-04-24T01:23:05;11.80;1.00
15286;DHT22;7744;52.172;10.668;2023-04-24T01:25:31;11.80;1.00
15286;DHT22;7744;52.172;10.668;2023-04-24T01:27:58;11.80;1.00
15286;DHT22;7744;52.172;10.668;2023-04-24T01:30:25;11.80;1.00
15286;DHT22;7744;52.172;10.668;2023-04-24T01:32:51;11.70;1.00
15286;DHT22;7744;52.172;10.668;2023-04-24T01:35:17;11.60;1.00
15286;DHT22;7744;52.172;10.668;2023-04-24T01:37:43;11.60;1.00
15286;DHT22;7744;52.172;10.668;2023-04-24T01:40:09;11.60;1.00
15286;DHT22;7744;52.172;10.668;2023-04-24T01:42:35;11.60;1.00
15286;DHT22;7744;52.172;10.668;2023-04-24T01:45:02;11.50;1.00
15286;DHT22;7744;52.172;10.668;2023-04-24T01:47:30;11.40;1.00
15286;DHT22;7744;52.172;10.668;2023-04-24T01:49:55;11.40;1.00
15286;DHT22;7744;52.172;10.668;2023-04-24T01:52:21;11.30;1.00
15286;DHT22;7744;52.172;10.668;2023-04-24T01:54:47;11.20;1.00
15286;DHT22;7744;52.172;10.668;2023-04-24T01:57:14;11.20;1.00
15286;DHT22;7744;52.172;10.668;2023-04-24T01:59:40;11.10;1.00
15286;DHT22;7744;52.172;10.668;2023-04-24T02:02:05;11.10;1.00
15286;DHT22;7744;52.172;10.668;2023-04-24T02:04:31;11.10;1.00
15286;DHT22;7744;52.172;10.668;2023-04-24T02:06:57;11.10;1.00
15286;DHT22;7744;52.172;10.668;2023-04-24T02:09:23;11.10;1.00
15286;DHT22;7744;52.172;10.668;2023-04-24T02:11:48;11.10;1.00
15286;DHT22;7744;52.172;10.668;2023-04-24T02:14:14;11.00;1.00
15286;DHT22;7744;52.172;10.668;2023-04-24T02:16:40;11.00;1.00
15286;DHT22;7744;52.172;10.668;2023-04-24T02:19:05;11.00;1.00
15286;DHT22;7744;52.172;10.668;2023-04-24T02:21:31;11.00;1.00
15286;DHT22;7744;52.172;10.668;2023-04-24T02:23:57;10.90;1.70
15286;DHT22;7744;52.172;10.668;2023-04-24T02:26:23;10.90;8.70
15286;DHT22;7744;52.172;10.668;2023-04-24T02:28:48;10.90;9.70
15286;DHT22;7744;52.172;10.668;2023-04-24T02:31:14;11.00;3.60
15286;DHT22;7744;52.172;10.668;2023-04-24T02:33:40;11.00;1.00
15286;DHT22;7744;52.172;10.668;2023-04-24T02:36:05;11.00;1.00
15286;DHT22;7744;52.172;10.668;2023-04-24T02:38:31;10.90;1.00
15286;DHT22;7744;52.172;10.668;2023-04-24T02:40:56;10.90;1.50
15286;DHT22;7744;52.172;10.668;2023-04-24T02:43:22;10.80;2.00
15286;DHT22;7744;52.172;10.668;2023-04-24T02:45:48;10.80;8.20
15286;DHT22;7744;52.172;10.668;2023-04-24T02:48:14;10.80;1.00
15286;DHT22;7744;52.172;10.668;2023-04-24T02:50:40;10.70;1.00
15286;DHT22;7744;52.172;10.668;2023-04-24T02:53:05;10.70;3.60
15286;DHT22;7744;52.172;10.668;2023-04-24T02:55:31;10.60;2.50
15286;DHT22;7744;52.172;10.668;2023-04-24T02:57:57;10.60;1.00
15286;DHT22;7744;52.172;10.668;2023-04-24T03:00:22;10.70;4.20
15286;DHT22;7744;52.172;10.668;2023-04-24T03:02:48;10.70;1.00
15286;DHT22;7744;52.172;10.668;2023-04-24T03:05:15;10.70;3.10
15286;DHT22;7744;52.172;10.668;2023-04-24T03:07:41;10.50;1.00
15286;DHT22;7744;52.172;10.668;2023-04-24T03:10:07;10.50;5.60
15286;DHT22;7744;52.172;10.668;2023-04-24T03:12:32;10.50;6.10
15286;DHT22;7744;52.172;10.668;2023-04-24T03:14:58;10.50;2.70
15286;DHT22;7744;52.172;10.668;2023-04-24T03:17:23;10.40;5.10
15286;DHT22;7744;52.172;10.668;2023-04-24T03:19:49;10.50;1.00
15286;DHT22;7744;52.172;10.668;2023-04-24T03:22:15;10.40;1.00
15286;DHT22;7744;52.172;10.668;2023-04-24T03:24:41;10.30;1.00
15286;DHT22;7744;52.172;10.668;2023-04-24T03:27:06;10.30;1.00
15286;DHT22;7744;52.172;10.668;2023-04-24T03:29:34;10.30;3.00
15286;DHT22;7744;52.172;10.668;2023-04-24T03:31:59;10.40;1.00
15286;DHT22;7744;52.172;10.668;2023-04-24T03:34:25;10.40;1.00
15286;DHT22;7744;52.172;10.668;2023-04-24T03:36:50;10.40;1.00
15286;DHT22;7744;52.172;10.668;2023-04-24T03:39:16;10.50;1.00
15286;DHT22;7744;52.172;10.668;2023-04-24T03:41:41;10.60;1.00
15286;DHT22;7744;52.172;10.668;2023-04-24T03:44:07;10.70;1.00
15286;DHT22;7744;52.172;10.668;2023-04-24T03:46:32;10.70;1.00
15286;DHT22;7744;52.172;10.668;2023-04-24T03:48:58;10.80;1.00
15286;DHT22;7744;52.172;10.668;2023-04-24T03:51:24;10.80;1.00
15286;DHT22;7744;52.172;10.668;2023-04-24T03:53:49;10.80;1.00
15286;DHT22;7744;52.172;10.668;2023-04-24T03:56:15;10.80;1.00
15286;DHT22;7744;52.172;10.668;2023-04-24T03:58:40;10.80;1.00
15286;DHT22;7744;52.172;10.668;2023-04-24T04:01:06;10.80;1.00
15286;DHT22;7744;52.172;10.668;2023-04-24T04:03:32;10.70;1.00
15286;DHT22;7744;52.172;10.668;2023-04-24T04:05:58;10.70;1.00
15286;DHT22;7744;52.172;10.668;2023-04-24T04:08:24;10.70;1.00
15286;DHT22;7744;52.172;10.668;2023-04-24T04:10:49;10.70;1.00
15286;DHT22;7744;52.172;10.668;2023-04-24T04:13:15;10.70;1.00
15286;DHT22;7744;52.172;10.668;2023-04-24T04:15:41;10.60;1.00
15286;DHT22;7744;52.172;10.668;2023-04-24T04:18:06;10.60;1.00
15286;DHT22;7744;52.172;10.668;2023-04-24T04:20:32;10.60;1.00
15286;DHT22;7744;52.172;10.668;2023-04-24T04:22:57;10.60;1.00
15286;DHT22;7744;52.172;10.668;2023-04-24T04:25:23;10.60;1.00
15286;DHT22;7744;52.172;10.668;2023-04-24T04:27:48;10.60;1.00
15286;DHT22;7744;52.172;10.668;2023-04-24T04:30:14;10.60;1.00
15286;DHT22;7744;52.172;10.668;2023-04-24T04:32:40;10.70;1.00
15286;DHT22;7744;52.172;10.668;2023-04-24T04:35:06;10.70;1.00
15286;DHT22;7744;52.172;10.668;2023-04-24T04:37:32;10.80;1.00
15286;DHT22;7744;52.172;10.668;2023-04-24T04:40:02;10.80;1.00
15286;DHT22;7744;52.172;10.668;2023-04-24T04:42:32;10.80;1.00
15286;DHT22;7744;52.172;10.668;2023-04-24T04:44:59;10.80;1.00
15286;DHT22;7744;52.172;10.668;2023-04-24T04:47:26;10.90;1.00
15286;DHT22;7744;52.172;10.668;2023-04-24T04:49:53;10.80;1.00
15286;DHT22;7744;52.172;10.668;2023-04-24T04:52:19;10.80;1.00
15286;DHT22;7744;52.172;10.668;2023-04-24T04:54:45;10.80;1.00
15286;DHT22;7744;52.172;10.668;2023-04-24T04:57:11;10.80;1.00
15286;DHT22;7744;52.172;10.668;2023-04-24T04:59:37;10.90;1.00
15286;DHT22;7744;52.172;10.668;2023-04-24T05:02:03;10.90;1.00
15286;DHT22;7744;52.172;10.668;2023-04-24T05:04:28;10.80;1.00
15286;DHT22;7744;52.172;10.668;2023-04-24T05:06:54;10.90;1.00
15286;DHT22;7744;52.172;10.668;2023-04-24T05:09:19;10.90;1.00
15286;DHT22;7744;52.172;10.668;2023-04-24T05:11:45;10.90;1.00
15286;DHT22;7744;52.172;10.668;2023-04-24T05:14:10;10.90;1.00
15286;DHT22;7744;52.172;10.668;2023-04-24T05:16:38;10.90;1.00
15286;DHT22;7744;52.172;10.668;2023-04-24T05:19:05;11.00;1.00
15286;DHT22;7744;52.172;10.668;2023-04-24T05:21:31;11.00;1.00
15286;DHT22;7744;52.172;10.668;2023-04-24T05:23:56;11.10;1.00
15286;DHT22;7744;52.172;10.668;2023-04-24T05:26:22;11.20;1.00
15286;DHT22;7744;52.172;10.668;2023-04-24T05:28:48;11.30;1.00
15286;DHT22;7744;52.172;10.668;2023-04-24T05:31:15;11.60;1.00
15286;DHT22;7744;52.172;10.668;2023-04-24T05:33:40;11.30;1.00
15286;DHT22;7744;52.172;10.668;2023-04-24T05:36:06;11.20;1.00
15286;DHT22;7744;52.172;10.668;2023-04-24T05:38:32;11.30;1.00
15286;DHT22;7744;52.172;10.668;2023-04-24T05:40:57;11.20;1.00
15286;DHT22;7744;52.172;10.668;2023-04-24T05:43:23;11.30;1.00
15286;DHT22;7744;52.172;10.668;2023-04-24T05:45:49;11.40;1.00
15286;DHT22;7744;52.172;10.668;2023-04-24T05:48:14;11.50;1.00
15286;DHT22;7744;52.172;10.668;2023-04-24T05:50:41;11.60;1.00
15286;DHT22;7744;52.172;10.668;2023-04-24T05:53:06;12.10;1.00
15286;DHT22;7744;52.172;10.668;2023-04-24T05:55:32;11.70;1.00
15286;DHT22;7744;52.172;10.668;2023-04-24T05:57:58;11.70;1.00
15286;DHT22;7744;52.172;10.668;2023-04-24T06:00:24;11.80;1.00
15286;DHT22;7744;52.172;10.668;2023-04-24T06:02:49;11.80;1.00
15286;DHT22;7744;52.172;10.668;2023-04-24T06:05:15;11.80;1.00
15286;DHT22;7744;52.172;10.668;2023-04-24T06:07:41;11.90;1.00
15286;DHT22;7744;52.172;10.668;2023-04-24T06:10:07;11.90;1.00
15286;DHT22;7744;52.172;10.668;2023-04-24T06:12:33;11.90;1.00
15286;DHT22;7744;52.172;10.668;2023-04-24T06:14:58;11.90;1.00
15286;DHT22;7744;52.172;10.668;2023-04-24T06:17:24;11.80;1.00
15286;DHT22;7744;52.172;10.668;2023-04-24T06:19:49;11.90;1.00
15286;DHT22;7744;52.172;10.668;2023-04-24T06:22:15;12.10;1.00
15286;DHT22;7744;52.172;10.668;2023-04-24T06:24:40;12.50;1.00
15286;DHT22;7744;52.172;10.668;2023-04-24T06:27:06;12.60;1.00
15286;DHT22;7744;52.172;10.668;2023-04-24T06:29:33;12.50;1.00
15286;DHT22;7744;52.172;10.668;2023-04-24T06:31:59;13.30;1.00
15286;DHT22;7744;52.172;10.668;2023-04-24T06:34:24;12.40;1.00
15286;DHT22;7744;52.172;10.668;2023-04-24T06:36:50;13.30;1.00
15286;DHT22;7744;52.172;10.668;2023-04-24T06:39:16;12.50;1.00
15286;DHT22;7744;52.172;10.668;2023-04-24T06:41:41;12.60;1.00
15286;DHT22;7744;52.172;10.668;2023-04-24T06:44:08;12.80;1.00
15286;DHT22;7744;52.172;10.668;2023-04-24T06:46:44;12.90;1.00
15286;DHT22;7744;52.172;10.668;2023-04-24T06:49:10;13.60;1.00
15286;DHT22;7744;52.172;10.668;2023-04-24T06:51:36;13.10;1.00
15286;DHT22;7744;52.172;10.668;2023-04-24T06:54:01;13.00;1.00
15286;DHT22;7744;52.172;10.668;2023-04-24T06:56:27;13.00;1.00
15286;DHT22;7744;52.172;10.668;2023-04-24T06:58:54;12.90;1.00
15286;DHT22;7744;52.172;10.668;2023-04-24T07:01:20;12.80;1.00
15286;DHT22;7744;52.172;10.668;2023-04-24T07:03:45;13.00;1.00
15286;DHT22;7744;52.172;10.668;2023-04-24T07:06:21;13.50;1.00
15286;DHT22;7744;52.172;10.668;2023-04-24T07:08:48;13.40;1.00
15286;DHT22;7744;52.172;10.668;2023-04-24T07:11:14;13.40;1.00
15286;DHT22;7744;52.172;10.668;2023-04-24T07:13:40;13.50;1.00
15286;DHT22;7744;52.172;10.668;2023-04-24T07:16:07;13.40;1.00
15286;DHT22;7744;52.172;10.668;2023-04-24T07:18:34;13.40;1.00
15286;DHT22;7744;52.172;10.668;2023-04-24T07:21:17;13.80;1.00
15286;DHT22;7744;52.172;10.668;2023-04-24T07:23:42;14.00;1.00
15286;DHT22;7744;52.172;10.668;2023-04-24T07:26:08;13.60;1.00
15286;DHT22;7744;52.172;10.668;2023-04-24T07:28:47;13.40;1.00
15286;DHT22;7744;52.172;10.668;2023-04-24T07:31:17;14.00;1.00
15286;DHT22;7744;52.172;10.668;2023-04-24T07:33:42;13.30;1.00
15286;DHT22;7744;52.172;10.668;2023-04-24T07:36:08;13.30;1.00
15286;DHT22;7744;52.172;10.668;2023-04-24T07:38:41;13.10;1.00
15286;DHT22;7744;52.172;10.668;2023-04-24T07:41:06;13.00;1.00
15286;DHT22;7744;52.172;10.668;2023-04-24T07:43:32;13.10;1.00
15286;DHT22;7744;52.172;10.668;2023-04-24T07:45:57;13.40;1.00
15286;DHT22;7744;52.172;10.668;2023-04-24T07:48:25;13.10;1.00
15286;DHT22;7744;52.172;10.668;2023-04-24T07:50:52;12.50;1.00
15286;DHT22;7744;52.172;10.668;2023-04-24T07:53:18;12.20;1.00
15286;DHT22;7744;52.172;10.668;2023-04-24T07:56:08;12.30;1.00
15286;DHT22;7744;52.172;10.668;2023-04-24T07:58:34;12.20;1.00
15286;DHT22;7744;52.172;10.668;2023-04-24T08:01:00;12.60;1.00
15286;DHT22;7744;52.172;10.668;2023-04-24T08:03:28;12.10;1.00
15286;DHT22;7744;52.172;10.668;2023-04-24T08:05:54;12.00;1.00
15286;DHT22;7744;52.172;10.668;2023-04-24T08:08:23;11.90;1.00
15286;DHT22;7744;52.172;10.668;2023-04-24T08:11:07;11.90;1.00
15286;DHT22;7744;52.172;10.668;2023-04-24T08:13:36;13.00;1.00
15286;DHT22;7744;52.172;10.668;2023-04-24T08:19:40;12.50;1.00
15286;DHT22;7744;52.172;10.668;2023-04-24T08:22:34;12.50;1.00
15286;DHT22;7744;52.172;10.668;2023-04-24T08:25:06;12.10;1.00
15286;DHT22;7744;52.172;10.668;2023-04-24T08:27:32;12.40;1.00
15286;DHT22;7744;52.172;10.668;2023-04-24T08:29:58;12.50;1.00
15286;DHT22;7744;52.172;10.668;2023-04-24T08:32:25;12.70;1.00
15286;DHT22;7744;52.172;10.668;2023-04-24T08:34:54;13.00;1.00
15286;DHT22;7744;52.172;10.668;2023-04-24T08:37:22;13.50;1.00
15286;DHT22;7744;52.172;10.668;2023-04-24T08:39:48;13.10;1.00
15286;DHT22;7744;52.172;10.668;2023-04-24T08:42:14;13.10;1.00
15286;DHT22;7744;52.172;10.668;2023-04-24T08:44:42;13.10;1.00
15286;DHT22;7744;52.172;10.668;2023-04-24T08:47:09;12.90;1.00
15286;DHT22;7744;52.172;10.668;2023-04-24T08:49:36;13.20;1.00
15286;DHT22;7744;52.172;10.668;2023-04-24T08:52:03;13.00;1.00
15286;DHT22;7744;52.172;10.668;2023-04-24T08:54:31;13.00;1.00
15286;DHT22;7744;52.172;10.668;2023-04-24T08:57:00;13.10;1.00
15286;DHT22;7744;52.172;10.668;2023-04-24T11:42:51;14.20;1.00
15286;DHT22;7744;52.172;10.668;2023-04-24T11:45:26;14.20;1.00
15286;DHT22;7744;52.172;10.668;2023-04-24T11:47:54;14.20;1.00
15286;DHT22;7744;52.172;10.668;2023-04-24T11:50:22;14.30;1.00
15286;DHT22;7744;52.172;10.668;2023-04-24T11:52:49;14.40;1.00
15286;DHT22;7744;52.172;10.668;2023-04-24T11:57:53;14.40;1.00
15286;DHT22;7744;52.172;10.668;2023-04-24T12:00:30;14.10;1.00
15286;DHT22;7744;52.172;10.668;2023-04-24T12:03:16;13.90;1.00
15286;DHT22;7744;52.172;10.668;2023-04-24T12:05:42;13.90;1.00
15286;DHT22;7744;52.172;10.668;2023-04-24T12:08:09;14.20;1.00
15286;DHT22;7744;52.172;10.668;2023-04-24T12:10:40;14.70;1.00
15286;DHT22;7744;52.172;10.668;2023-04-24T12:13:09;15.30;1.00
15286;DHT22;7744;52.172;10.668;2023-04-24T12:15:40;15.20;1.00
15286;DHT22;7744;52.172;10.668;2023-04-24T12:18:11;15.50;1.00
15286;DHT22;7744;52.172;10.668;2023-04-24T12:20:38;15.00;1.00
15286;DHT22;7744;52.172;10.668;2023-04-24T12:23:04;14.90;1.00
15286;DHT22;7744;52.172;10.668;2023-04-24T12:25:43;14.90;1.00
15286;DHT22;7744;52.172;10.668;2023-04-24T12:28:17;15.10;1.00
15286;DHT22;7744;52.172;10.668;2023-04-24T12:30:48;15.00;1.00
15286;DHT22;7744;52.172;10.668;2023-04-24T12:33:36;15.40;1.00
15286;DHT22;7744;52.172;10.668;2023-04-24T12:42:29;15.00;1.00
15286;DHT22;7744;52.172;10.668;2023-04-24T12:45:06;14.90;1.00
15286;DHT22;7744;52.172;10.668;2023-04-24T12:47:39;16.00;1.00
15286;DHT22;7744;52.172;10.668;2023-04-24T12:50:38;14.90;1.00
15286;DHT22;7744;52.172;10.668;2023-04-24T12:53:08;14.70;1.00
15286;DHT22;7744;52.172;10.668;2023-04-24T12:55:47;14.50;1.00
15286;DHT22;7744;52.172;10.668;2023-04-24T12:58:21;15.30;1.00
15286;DHT22;7744;52.172;10.668;2023-04-24T13:00:47;14.50;1.00
15286;DHT22;7744;52.172;10.668;2023-04-24T13:03:18;13.70;1.00
15286;DHT22;7744;52.172;10.668;2023-04-24T13:05:43;13.50;1.00
15286;DHT22;7744;52.172;10.668;2023-04-24T13:08:15;14.60;1.00
15286;DHT22;7744;52.172;10.668;2023-04-24T13:10:47;13.90;1.00
15286;DHT22;7744;52.172;10.668;2023-04-24T13:13:44;13.60;1.00
15286;DHT22;7744;52.172;10.668;2023-04-24T13:16:42;13.70;1.00
15286;DHT22;7744;52.172;10.668;2023-04-24T13:19:39;13.70;1.00
15286;DHT22;7744;52.172;10.668;2023-04-24T13:22:09;13.60;1.00
15286;DHT22;7744;52.172;10.668;2023-04-24T13:24:48;14.40;1.00
15286;DHT22;7744;52.172;10.668;2023-04-24T13:27:15;14.20;1.00
15286;DHT22;7744;52.172;10.668;2023-04-24T13:29:43;13.70;1.00
15286;DHT22;7744;52.172;10.668;2023-04-24T13:32:12;13.00;1.00
15286;DHT22;7744;52.172;10.668;2023-04-24T13:34:37;13.50;1.00
15286;DHT22;7744;52.172;10.668;2023-04-24T13:37:04;13.40;1.00
15286;DHT22;7744;52.172;10.668;2023-04-24T13:39:30;14.00;1.00
15286;DHT22;7744;52.172;10.668;2023-04-24T13:41:56;13.90;1.00
15286;DHT22;7744;52.172;10.668;2023-04-24T13:44:22;13.10;1.00
15286;DHT22;7744;52.172;10.668;2023-04-24T13:46:50;13.40;1.00
15286;DHT22;7744;52.172;10.668;2023-04-24T13:49:17;13.70;1.00
15286;DHT22;7744;52.172;10.668;2023-04-24T13:51:43;13.30;1.00
15286;DHT22;7744;52.172;10.668;2023-04-24T13:54:09;12.80;1.00
15286;DHT22;7744;52.172;10.668;2023-04-24T13:56:38;13.20;1.00
15286;DHT22;7744;52.172;10.668;2023-04-24T13:59:05;12.30;1.00
15286;DHT22;7744;52.172;10.668;2023-04-24T14:01:31;12.50;1.00
15286;DHT22;7744;52.172;10.668;2023-04-24T14:03:57;12.50;1.00
15286;DHT22;7744;52.172;10.668;2023-04-24T14:06:30;12.40;1.00
15286;DHT22;7744;52.172;10.668;2023-04-24T14:08:56;12.40;1.00
15286;DHT22;7744;52.172;10.668;2023-04-24T14:11:22;12.40;1.00
15286;DHT22;7744;52.172;10.668;2023-04-24T14:13:47;12.30;1.00
15286;DHT22;7744;52.172;10.668;2023-04-24T14:16:16;12.20;1.00
15286;DHT22;7744;52.172;10.668;2023-04-24T14:18:42;12.20;1.00
15286;DHT22;7744;52.172;10.668;2023-04-24T14:21:07;12.10;1.00
15286;DHT22;7744;52.172;10.668;2023-04-24T14:23:33;12.00;1.00
15286;DHT22;7744;52.172;10.668;2023-04-24T14:25:59;12.00;1.00
15286;DHT22;7744;52.172;10.668;2023-04-24T14:28:26;11.80;1.00
15286;DHT22;7744;52.172;10.668;2023-04-24T14:30:54;11.50;1.00
15286;DHT22;7744;52.172;10.668;2023-04-24T14:33:20;12.10;1.00
15286;DHT22;7744;52.172;10.668;2023-04-24T14:36:18;11.40;1.00
15286;DHT22;7744;52.172;10.668;2023-04-24T14:39:56;11.40;1.00
15286;DHT22;7744;52.172;10.668;2023-04-24T14:42:23;12.20;1.00
15286;DHT22;7744;52.172;10.668;2023-04-24T14:44:50;11.50;1.00
15286;DHT22;7744;52.172;10.668;2023-04-24T14:51:05;11.10;1.00
15286;DHT22;7744;52.172;10.668;2023-04-24T14:53:42;11.00;1.00
15286;DHT22;7744;52.172;10.668;2023-04-24T15:00:07;9.90;1.00
15286;DHT22;7744;52.172;10.668;2023-04-24T15:07:02;10.90;1.00
15286;DHT22;7744;52.172;10.668;2023-04-24T15:10:08;11.90;1.00
15286;DHT22;7744;52.172;10.668;2023-04-24T15:12:34;10.80;1.00
15286;DHT22;7744;52.172;10.668;2023-04-24T15:14:59;11.40;1.00
15286;DHT22;7744;52.172;10.668;2023-04-24T15:17:51;9.90;1.00
15286;DHT22;7744;52.172;10.668;2023-04-24T15:20:18;10.40;1.00
15286;DHT22;7744;52.172;10.668;2023-04-24T15:23:19;10.70;1.00
15286;DHT22;7744;52.172;10.668;2023-04-24T15:29:24;10.70;1.00
15286;DHT22;7744;52.172;10.668;2023-04-24T15:31:50;11.20;1.00
15286;DHT22;7744;52.172;10.668;2023-04-24T15:34:16;10.80;1.00
15286;DHT22;7744;52.172;10.668;2023-04-24T15:36:41;11.90;1.00
15286;DHT22;7744;52.172;10.668;2023-04-24T15:39:11;11.60;1.00
15286;DHT22;7744;52.172;10.668;2023-04-24T15:41:41;11.30;1.00
15286;DHT22;7744;52.172;10.668;2023-04-24T15:44:06;11.10;1.00
15286;DHT22;7744;52.172;10.668;2023-04-24T15:46:34;11.30;1.00
15286;DHT22;7744;52.172;10.668;2023-04-24T15:49:00;11.50;1.00
15286;DHT22;7744;52.172;10.668;2023-04-24T15:51:26;10.50;1.00
15286;DHT22;7744;52.172;10.668;2023-04-24T15:53:52;10.30;1.00
15286;DHT22;7744;52.172;10.668;2023-04-24T15:56:17;10.20;1.00
15286;DHT22;7744;52.172;10.668;2023-04-24T15:58:44;11.30;1.00
15286;DHT22;7744;52.172;10.668;2023-04-24T16:01:10;9.90;1.00
15286;DHT22;7744;52.172;10.668;2023-04-24T16:03:36;10.40;1.00
15286;DHT22;7744;52.172;10.668;2023-04-24T16:06:05;10.40;1.00
15286;DHT22;7744;52.172;10.668;2023-04-24T16:08:31;10.40;1.00
15286;DHT22;7744;52.172;10.668;2023-04-24T16:10:58;11.30;1.00
15286;DHT22;7744;52.172;10.668;2023-04-24T16:13:23;10.50;1.00
15286;DHT22;7744;52.172;10.668;2023-04-24T16:15:50;10.50;1.00
15286;DHT22;7744;52.172;10.668;2023-04-24T16:18:16;10.50;1.00
15286;DHT22;7744;52.172;10.668;2023-04-24T16:20:43;10.50;1.00
15286;DHT22;7744;52.172;10.668;2023-04-24T16:23:09;10.40;1.00
15286;DHT22;7744;52.172;10.668;2023-04-24T16:25:35;10.40;1.00
15286;DHT22;7744;52.172;10.668;2023-04-24T16:28:00;10.40;1.00
15286;DHT22;7744;52.172;10.668;2023-04-24T16:30:26;10.40;1.00
15286;DHT22;7744;52.172;10.668;2023-04-24T16:33:00;10.40;1.00
15286;DHT22;7744;52.172;10.668;2023-04-24T16:35:25;10.40;1.00
15286;DHT22;7744;52.172;10.668;2023-04-24T16:37:51;10.30;1.00
15286;DHT22;7744;52.172;10.668;2023-04-24T16:40:17;10.30;1.00
15286;DHT22;7744;52.172;10.668;2023-04-24T16:42:43;10.40;1.00
15286;DHT22;7744;52.172;10.668;2023-04-24T16:45:09;10.90;1.00
15286;DHT22;7744;52.172;10.668;2023-04-24T16:47:35;10.30;1.00
15286;DHT22;7744;52.172;10.668;2023-04-24T16:50:01;10.90;1.00
15286;DHT22;7744;52.172;10.668;2023-04-24T16:52:27;10.10;1.00
15286;DHT22;7744;52.172;10.668;2023-04-24T16:54:52;10.20;1.00
15286;DHT22;7744;52.172;10.668;2023-04-24T16:57:18;10.30;1.00
15286;DHT22;7744;52.172;10.668;2023-04-24T16:59:43;10.30;1.00
15286;DHT22;7744;52.172;10.668;2023-04-24T17:02:09;10.90;1.00
15286;DHT22;7744;52.172;10.668;2023-04-24T17:04:36;11.40;1.00
15286;DHT22;7744;52.172;10.668;2023-04-24T17:07:08;10.60;1.00
15286;DHT22;7744;52.172;10.668;2023-04-24T17:09:35;10.30;1.00
15286;DHT22;7744;52.172;10.668;2023-04-24T17:12:01;10.10;1.00
15286;DHT22;7744;52.172;10.668;2023-04-24T17:14:27;10.00;1.00
15286;DHT22;7744;52.172;10.668;2023-04-24T17:16:52;10.00;1.00
15286;DHT22;7744;52.172;10.668;2023-04-24T17:19:18;10.00;1.00
15286;DHT22;7744;52.172;10.668;2023-04-24T17:21:44;10.00;1.00
15286;DHT22;7744;52.172;10.668;2023-04-24T17:24:11;9.90;1.00
15286;DHT22;7744;52.172;10.668;2023-04-24T17:26:37;9.90;1.00
15286;DHT22;7744;52.172;10.668;2023-04-24T17:29:03;9.90;1.00
15286;DHT22;7744;52.172;10.668;2023-04-24T17:31:28;10.70;1.00
15286;DHT22;7744;52.172;10.668;2023-04-24T17:33:54;10.00;1.00
15286;DHT22;7744;52.172;10.668;2023-04-24T17:36:20;10.90;1.00
15286;DHT22;7744;52.172;10.668;2023-04-24T17:38:45;9.90;1.00
15286;DHT22;7744;52.172;10.668;2023-04-24T17:41:12;9.80;1.00
15286;DHT22;7744;52.172;10.668;2023-04-24T17:44:04;10.00;1.00
15286;DHT22;7744;52.172;10.668;2023-04-24T17:46:30;9.80;1.00
15286;DHT22;7744;52.172;10.668;2023-04-24T17:48:56;9.80;1.00
15286;DHT22;7744;52.172;10.668;2023-04-24T17:51:23;9.70;1.00
15286;DHT22;7744;52.172;10.668;2023-04-24T17:53:48;9.60;1.00
15286;DHT22;7744;52.172;10.668;2023-04-24T17:56:14;9.50;1.00
15286;DHT22;7744;52.172;10.668;2023-04-24T17:58:40;9.60;1.00
15286;DHT22;7744;52.172;10.668;2023-04-24T18:01:06;9.60;1.00
15286;DHT22;7744;52.172;10.668;2023-04-24T18:03:31;9.50;1.00
15286;DHT22;7744;52.172;10.668;2023-04-24T18:06:00;9.50;1.00
15286;DHT22;7744;52.172;10.668;2023-04-24T18:08:47;9.50;1.00
15286;DHT22;7744;52.172;10.668;2023-04-24T18:11:13;9.60;1.00
15286;DHT22;7744;52.172;10.668;2023-04-24T18:13:38;9.60;1.00
15286;DHT22;7744;52.172;10.668;2023-04-24T18:16:12;10.60;1.00
15286;DHT22;7744;52.172;10.668;2023-04-24T18:18:38;9.50;11.30
15286;DHT22;7744;52.172;10.668;2023-04-24T18:21:03;9.80;21.90
15286;DHT22;7744;52.172;10.668;2023-04-24T18:23:32;9.40;23.40
15286;DHT22;7744;52.172;10.668;2023-04-24T18:25:59;9.50;41.10
15286;DHT22;7744;52.172;10.668;2023-04-24T18:28:25;9.50;50.80
15286;DHT22;7744;52.172;10.668;2023-04-24T18:30:51;9.50;51.20
15286;DHT22;7744;52.172;10.668;2023-04-24T18:33:17;9.90;56.40
15286;DHT22;7744;52.172;10.668;2023-04-24T18:35:43;9.50;31.90
15286;DHT22;7744;52.172;10.668;2023-04-24T18:38:09;9.50;17.20
15286;DHT22;7744;52.172;10.668;2023-04-24T18:40:34;9.40;18.00
15286;DHT22;7744;52.172;10.668;2023-04-24T18:43:05;9.50;6.40
15286;DHT22;7744;52.172;10.668;2023-04-24T18:45:30;9.50;13.30
15286;DHT22;7744;52.172;10.668;2023-04-24T18:47:56;9.50;1.00
15286;DHT22;7744;52.172;10.668;2023-04-24T18:50:23;9.50;1.00
15286;DHT22;7744;52.172;10.668;2023-04-24T18:52:51;9.50;1.00
15286;DHT22;7744;52.172;10.668;2023-04-24T18:55:17;9.50;1.00
15286;DHT22;7744;52.172;10.668;2023-04-24T18:57:43;9.50;1.00
15286;DHT22;7744;52.172;10.668;2023-04-24T19:00:10;9.50;1.00
15286;DHT22;7744;52.172;10.668;2023-04-24T19:02:37;9.50;1.00
15286;DHT22;7744;52.172;10.668;2023-04-24T19:05:03;9.50;1.00